createdAt,value
2023-08-13T00:00:14.403Z,17.09
2023-08-13T00:08:18.510Z,17.00
2023-08-13T00:13:55.388Z,16.94
2023-08-13T00:19:30.400Z,16.83
2023-08-13T00:22:37.595Z,16.81
2023-08-13T00:28:10.471Z,16.71
2023-08-13T00:31:15.735Z,16.69
2023-08-13T00:36:48.939Z,16.62
2023-08-13T00:42:23.977Z,16.56
2023-08-13T00:47:58.830Z,16.53
2023-08-13T00:53:34.392Z,16.54
2023-08-13T00:59:08.932Z,16.54
2023-08-13T01:04:45.662Z,16.53
2023-08-13T01:10:48.946Z,16.45
2023-08-13T01:16:25.162Z,16.39
2023-08-13T01:22:02.133Z,16.40
2023-08-13T01:30:24.353Z,16.38
2023-08-13T01:41:08.186Z,16.32
2023-08-13T01:44:17.000Z,16.31
2023-08-13T01:49:52.500Z,16.27
2023-08-13T01:55:29.169Z,16.26
2023-08-13T02:01:05.273Z,16.26
2023-08-13T02:06:43.485Z,16.24
2023-08-13T02:12:21.535Z,16.24
2023-08-13T02:20:28.204Z,16.24
2023-08-13T02:26:04.488Z,16.25
2023-08-13T02:31:39.140Z,16.25
2023-08-13T02:34:48.381Z,16.26
2023-08-13T02:40:24.531Z,16.23
2023-08-13T02:48:28.876Z,16.24
2023-08-13T02:51:34.680Z,16.25
2023-08-13T02:57:10.856Z,16.25
2023-08-13T03:02:46.746Z,16.23
2023-08-13T03:08:22.589Z,16.23
2023-08-13T03:11:29.157Z,16.24
2023-08-13T03:19:32.084Z,16.28
2023-08-13T03:25:07.436Z,16.33
2023-08-13T03:33:15.477Z,16.42
2023-08-13T03:38:49.739Z,16.51
2023-08-13T03:41:54.178Z,16.55
2023-08-13T03:47:30.453Z,16.66
2023-08-13T03:53:07.836Z,16.78
2023-08-13T04:01:21.707Z,16.92
2023-08-13T04:04:28.997Z,16.97
2023-08-13T04:07:05.030Z,17.03
2023-08-13T04:09:48.476Z,17.09
2023-08-13T04:15:26.345Z,17.21
2023-08-13T04:18:33.075Z,17.25
2023-08-13T04:21:42.812Z,17.32
2023-08-13T04:24:48.902Z,17.38
2023-08-13T04:27:55.854Z,17.46
2023-08-13T04:31:03.265Z,17.53
2023-08-13T04:34:09.833Z,17.60
2023-08-13T04:37:15.798Z,17.66
2023-08-13T04:40:24.238Z,17.75
2023-08-13T04:48:32.971Z,18.02
2023-08-13T04:54:06.385Z,18.20
2023-08-13T04:59:42.043Z,18.37
2023-08-13T05:05:18.399Z,18.56
2023-08-13T05:10:54.222Z,18.76
2023-08-13T05:16:28.542Z,18.96
2023-08-13T05:22:05.424Z,19.16
2023-08-13T05:25:10.766Z,19.23
2023-08-13T05:30:45.914Z,19.43
2023-08-13T05:33:51.203Z,19.51
2023-08-13T05:39:26.661Z,19.67
2023-08-13T05:45:01.813Z,19.81
2023-08-13T05:50:39.423Z,19.96
2023-08-13T05:56:15.326Z,20.10
2023-08-13T05:59:21.048Z,20.16
2023-08-13T06:04:55.028Z,20.30
2023-08-13T06:10:30.025Z,20.42
2023-08-13T06:16:06.609Z,20.58
2023-08-13T06:21:41.586Z,20.73
2023-08-13T06:27:17.234Z,20.89
2023-08-13T06:35:23.615Z,21.11
2023-08-13T06:40:58.900Z,21.26
2023-08-13T06:46:33.797Z,21.42
2023-08-13T06:54:37.602Z,21.66
2023-08-13T06:57:43.995Z,21.72
2023-08-13T07:05:49.573Z,21.94
2023-08-13T07:08:54.872Z,22.02
2023-08-13T07:12:02.474Z,22.13
2023-08-13T07:17:37.981Z,22.27
2023-08-13T07:23:14.415Z,22.40
2023-08-13T07:28:52.766Z,22.55
2023-08-13T07:36:55.739Z,22.77
2023-08-13T07:40:02.799Z,22.84
2023-08-13T07:45:37.712Z,23.00
2023-08-13T07:51:12.673Z,23.09
2023-08-13T07:54:19.847Z,23.14
2023-08-13T07:59:56.232Z,23.22
2023-08-13T08:02:56.570Z,23.23
2023-08-13T08:08:31.613Z,23.38
2023-08-13T08:16:36.700Z,23.55
2023-08-13T08:19:43.729Z,23.60
2023-08-13T08:25:24.687Z,23.68
2023-08-13T08:28:31.655Z,23.70
2023-08-13T08:31:38.160Z,23.72
2023-08-13T08:34:44.072Z,23.77
2023-08-13T08:40:20.297Z,23.88
2023-08-13T08:43:26.992Z,23.90
2023-08-13T08:46:31.997Z,23.95
2023-08-13T08:52:08.414Z,24.04
2023-08-13T08:57:45.110Z,24.13
2023-08-13T09:03:20.115Z,24.22
2023-08-13T09:08:55.876Z,24.31
2023-08-13T09:14:31.028Z,24.38
2023-08-13T09:20:08.132Z,24.36
2023-08-13T09:28:13.038Z,24.33
2023-08-13T09:33:48.703Z,24.44
2023-08-13T09:39:24.029Z,24.58
2023-08-13T09:47:28.035Z,24.94
2023-08-13T09:50:34.598Z,25.05
2023-08-13T09:56:11.412Z,25.27
2023-08-13T09:59:17.637Z,25.37
2023-08-13T10:02:23.178Z,25.50
2023-08-13T10:05:29.814Z,25.62
2023-08-13T10:08:35.962Z,25.72
2023-08-13T10:11:41.277Z,25.71
2023-08-13T10:14:47.233Z,25.69
2023-08-13T10:17:55.907Z,25.72
2023-08-13T10:26:01.011Z,25.92
2023-08-13T10:31:42.726Z,26.12
2023-08-13T10:35:02.144Z,26.24
2023-08-13T10:38:13.038Z,26.32
2023-08-13T10:43:49.455Z,26.53
2023-08-13T10:51:54.354Z,26.76
2023-08-13T10:54:59.634Z,26.86
2023-08-13T11:00:39.894Z,27.00
2023-08-13T11:03:48.180Z,27.08
2023-08-13T11:06:54.221Z,27.23
2023-08-13T11:10:00.197Z,27.34
2023-08-13T11:15:36.658Z,27.46
2023-08-13T11:18:41.845Z,27.48
2023-08-13T11:21:47.564Z,27.58
2023-08-13T11:27:23.812Z,27.84
2023-08-13T11:33:01.127Z,27.91
2023-08-13T11:38:37.896Z,27.89
2023-08-13T11:46:43.132Z,28.04
2023-08-13T11:49:58.480Z,28.11
2023-08-13T11:53:28.196Z,28.18
2023-08-13T11:56:35.002Z,28.24
2023-08-13T11:59:24.818Z,28.27
2023-08-13T12:02:30.114Z,28.26
2023-08-13T12:05:42.281Z,28.22
2023-08-13T12:08:48.152Z,28.29
2023-08-13T12:11:54.124Z,28.29
2023-08-13T12:15:00.126Z,28.31
2023-08-13T12:18:07.098Z,28.34
2023-08-13T12:23:42.904Z,28.28
2023-08-13T12:26:50.627Z,28.29
2023-08-13T12:29:56.800Z,28.31
2023-08-13T12:35:31.542Z,28.14
2023-08-13T12:38:29.166Z,28.14
2023-08-13T12:41:39.821Z,28.05
2023-08-13T12:49:42.085Z,27.95
2023-08-13T12:55:16.396Z,27.95
2023-08-13T13:00:52.882Z,27.95
2023-08-13T13:03:59.368Z,27.93
2023-08-13T13:06:56.837Z,27.87
2023-08-13T13:10:03.500Z,27.72
2023-08-13T13:15:39.279Z,27.34
2023-08-13T13:23:44.243Z,27.30
2023-08-13T13:26:49.596Z,27.29
2023-08-13T13:32:22.886Z,27.23
2023-08-13T13:35:28.032Z,27.26
2023-08-13T13:38:35.323Z,27.31
2023-08-13T13:46:40.041Z,27.38
2023-08-13T13:52:18.388Z,27.47
2023-08-13T13:57:54.297Z,27.57
2023-08-13T14:01:02.315Z,27.58
2023-08-13T14:06:36.978Z,27.38
2023-08-13T14:14:44.070Z,27.22
2023-08-13T14:20:20.415Z,26.99
2023-08-13T14:25:55.982Z,26.68
2023-08-13T14:29:03.011Z,26.57
2023-08-13T14:34:37.124Z,26.53
2023-08-13T14:37:42.678Z,26.59
2023-08-13T14:43:19.341Z,26.67
2023-08-13T14:48:53.619Z,26.68
2023-08-13T14:51:59.257Z,26.72
2023-08-13T14:57:34.453Z,26.75
2023-08-13T15:03:10.998Z,27.01
2023-08-13T15:08:47.302Z,26.98
2023-08-13T15:14:24.461Z,26.84
2023-08-13T15:17:30.031Z,26.82
2023-08-13T15:23:04.977Z,26.80
2023-08-13T15:26:11.254Z,26.78
2023-08-13T15:34:16.937Z,26.90
2023-08-13T15:39:50.838Z,26.77
2023-08-13T15:45:25.965Z,26.72
2023-08-13T15:51:01.315Z,26.52
2023-08-13T15:56:37.045Z,26.34
2023-08-13T16:02:12.221Z,26.46
2023-08-13T16:07:47.535Z,26.39
2023-08-13T16:10:53.951Z,26.31
2023-08-13T16:16:29.889Z,26.08
2023-08-13T16:22:05.704Z,25.95
2023-08-13T16:27:40.693Z,25.75
2023-08-13T16:30:46.458Z,25.64
2023-08-13T16:36:18.397Z,25.36
2023-08-13T16:41:53.792Z,25.11
2023-08-13T16:45:00.567Z,25.00
2023-08-13T16:50:35.910Z,24.73
2023-08-13T16:56:11.977Z,24.40
2023-08-13T17:01:48.698Z,24.06
2023-08-13T17:07:22.997Z,23.69
2023-08-13T17:10:29.593Z,23.54
2023-08-13T17:16:08.709Z,23.20
2023-08-13T17:21:45.687Z,22.92
2023-08-13T17:29:50.687Z,22.52
2023-08-13T17:35:27.298Z,22.29
2023-08-13T17:41:03.857Z,22.05
2023-08-13T17:46:40.689Z,21.83
2023-08-13T17:52:15.767Z,21.67
2023-08-13T17:57:52.223Z,21.51
2023-08-13T18:00:57.433Z,21.46
2023-08-13T18:09:05.965Z,21.24
2023-08-13T18:17:07.964Z,20.99
2023-08-13T18:22:41.795Z,20.83
2023-08-13T18:25:48.883Z,20.75
2023-08-13T18:33:54.254Z,20.52
2023-08-13T18:37:00.138Z,20.48
2023-08-13T18:42:34.887Z,20.37
2023-08-13T18:48:12.348Z,20.31
2023-08-13T18:53:47.314Z,20.19
2023-08-13T19:01:56.097Z,19.98
2023-08-13T19:10:04.036Z,19.84
2023-08-13T19:18:10.252Z,19.74
2023-08-13T19:21:16.135Z,19.69
2023-08-13T19:26:50.938Z,19.55
2023-08-13T19:32:27.026Z,19.47
2023-08-13T19:38:01.872Z,19.36
2023-08-13T19:41:12.028Z,19.32
2023-08-13T19:47:09.905Z,19.22
2023-08-13T19:50:16.705Z,19.17
2023-08-13T19:58:21.870Z,19.05
2023-08-13T20:03:59.067Z,19.01
2023-08-13T20:07:05.082Z,18.99
2023-08-13T20:12:39.146Z,18.95
2023-08-13T20:18:14.892Z,18.86
2023-08-13T20:21:21.587Z,18.82
2023-08-13T20:27:05.078Z,18.75
2023-08-13T20:30:11.518Z,18.72
2023-08-13T20:33:19.191Z,18.68
2023-08-13T20:36:25.125Z,18.65
2023-08-13T20:39:30.528Z,18.64
2023-08-13T20:45:04.870Z,18.59
2023-08-13T20:53:10.837Z,18.54
2023-08-13T20:58:45.865Z,18.52
2023-08-13T21:04:20.947Z,18.45
2023-08-13T21:09:55.872Z,18.37
2023-08-13T21:13:00.932Z,18.34
2023-08-13T21:18:35.710Z,18.27
2023-08-13T21:24:11.267Z,18.23
2023-08-13T21:29:45.407Z,18.18
2023-08-13T21:35:22.307Z,18.13
2023-08-13T21:40:58.592Z,18.10
2023-08-13T21:46:33.808Z,18.05
2023-08-13T21:54:39.120Z,17.95
2023-08-13T21:57:44.341Z,17.95
2023-08-13T22:03:18.862Z,17.92
2023-08-13T22:08:54.671Z,17.88
2023-08-13T22:14:30.351Z,17.79
2023-08-13T22:20:09.561Z,17.73
2023-08-13T22:23:11.445Z,17.70
2023-08-13T22:26:19.093Z,17.70
2023-08-13T22:29:09.239Z,17.67
2023-08-13T22:34:44.659Z,17.65
2023-08-13T22:37:49.954Z,17.63
2023-08-13T22:43:22.127Z,17.53
2023-08-13T22:46:28.459Z,17.51
2023-08-13T22:54:34.079Z,17.41
2023-08-13T23:00:09.448Z,17.38
2023-08-13T23:05:46.014Z,17.33
2023-08-13T23:11:21.271Z,17.31
2023-08-13T23:16:57.963Z,17.24
2023-08-13T23:22:33.130Z,17.20
2023-08-13T23:28:08.242Z,17.17
2023-08-13T23:33:44.050Z,17.12
2023-08-13T23:41:50.334Z,17.06
2023-08-13T23:47:26.051Z,17.03
2023-08-13T23:53:00.732Z,16.99
2023-08-13T23:58:35.617Z,16.93
